Time;durP1;ratioP1;P1;durP2;ratioP2;P2;SDS_P1;SDS_P2;PMS_P1;PMS_P2;Temp;Humidity;BMP_temperature;BMP_pressure;BME280_temperature;BME280_humidity;BME280_pressure;Samples;Min_cycle;Max_cycle;Signal;HPM_P1;HPM_P2
2022/09/18 00:00:02;;;;;;;;;;;;;;;;;;2131863;27;19934;-42
2022/09/18 00:01:04;;;;;;;;;;;;;;;;;;2132038;27;19923;-42
2022/09/18 00:02:05;;;;;;;;;;;;;;;;;;2131889;27;19923;-42
2022/09/18 00:03:05;;;;;;;;;;;;;;;;;;2132032;27;19930;-42
2022/09/18 00:04:06;;;;;;;;;;;;;;;;;;2132012;27;19923;-42
2022/09/18 00:05:07;;;;;;;;;;;;;;;;;;2131805;27;19923;-42
2022/09/18 00:06:08;;;;;;;;;;;;;;;;;;2132021;27;19948;-42
2022/09/18 00:07:09;;;;;;;;;;;;;;;;;;2131745;27;19923;-42
2022/09/18 00:08:10;;;;;;;;;;;;;;;;;;2132012;27;20017;-42
2022/09/18 00:09:10;;;;;;;;;;;;;;;;;;2131795;27;19923;-42
2022/09/18 00:10:11;;;;;;;;;;;;;;;;;;2131857;27;19927;-42
2022/09/18 00:11:12;;;;;;;;;;;;;;;;;;2131722;27;20014;-43
2022/09/18 00:12:13;;;;;;;;;;;;;;;;;;2132164;27;20578;-42
2022/09/18 00:13:14;;;;;;;;;;;;;;;;;;2131975;27;19926;-42
2022/09/18 00:14:15;;;;;;;;;;;;;;;;;;2131754;27;19981;-42
2022/09/18 00:15:15;;;;;;;;;;;;;;;;;;2131827;27;19988;-42
2022/09/18 00:16:16;;;;;;;;;;;;;;;;;;2131260;27;19961;-42
2022/09/18 00:17:17;;;;;;;;;;;;;;;;;;2131370;27;19949;-45
2022/09/18 00:18:18;;;;;;;;;;;;;;;;;;2131889;27;20443;-46
2022/09/18 00:19:19;;;;;;;;;;;;;;;;;;2131914;27;19923;-45
2022/09/18 00:20:19;;;;;;;;;;;;;;;;;;2131837;27;20415;-45
2022/09/18 00:21:21;;;;;;;;;;;;;;;;;;2131746;27;19975;-45
2022/09/18 00:22:21;;;;;;;;;;;;;;;;;;2131805;27;20014;-45
2022/09/18 00:23:22;;;;;;;;;;;;;;;;;;2131769;27;19927;-45
2022/09/18 00:24:23;;;;;;;;;;;;;;;;;;2131757;27;20259;-45
2022/09/18 00:25:24;;;;;;;;;;;;;;;;;;2131760;27;19947;-45
2022/09/18 00:26:25;;;;;;;;;;;;;;;;;;2132037;27;19923;-43
2022/09/18 00:27:26;;;;;;;;;;;;;;;;;;2131940;27;19923;-42
2022/09/18 00:28:26;;;;;;;;;;;;;;;;;;2131865;27;19923;-42
2022/09/18 00:29:27;;;;;;;;;;;;;;;;;;2131734;27;19979;-42
2022/09/18 00:30:28;;;;;;;;;;;;;;;;;;2131897;27;19923;-42
2022/09/18 00:31:29;;;;;;;;;;;;;;;;;;2131678;27;19923;-42
2022/09/18 00:32:30;;;;;;;;;;;;;;;;;;2131869;27;20014;-42
2022/09/18 00:33:31;;;;;;;;;;;;;;;;;;2131853;27;19929;-42
2022/09/18 00:34:31;;;;;;;;;;;;;;;;;;2131571;27;20327;-42
2022/09/18 00:35:32;;;;;;;;;;;;;;;;;;2131475;27;20440;-42
2022/09/18 00:36:34;;;;;;;;;;;;;;;;;;2131657;27;19975;-42
2022/09/18 00:37:35;;;;;;;;;;;;;;;;;;2131818;27;20240;-42
2022/09/18 00:38:35;;;;;;;;;;;;;;;;;;2131562;27;19929;-42
2022/09/18 00:39:36;;;;;;;;;;;;;;;;;;2131689;27;19927;-42
2022/09/18 00:40:37;;;;;;;;;;;;;;;;;;2131712;27;19931;-42
2022/09/18 00:41:38;;;;;;;;;;;;;;;;;;2131955;27;19927;-43
2022/09/18 00:42:38;;;;;;;;;;;;;;;;;;2131758;27;20109;-42
2022/09/18 00:43:39;;;;;;;;;;;;;;;;;;2131691;27;19973;-42
2022/09/18 00:44:40;;;;;;;;;;;;;;;;;;2131846;27;19975;-42
2022/09/18 00:45:41;;;;;;;;;;;;;;;;;;2131667;27;20300;-42
2022/09/18 00:46:42;;;;;;;;;;;;;;;;;;2131723;27;20321;-42
2022/09/18 00:47:43;;;;;;;;;;;;;;;;;;2131688;27;19946;-43
2022/09/18 00:48:44;;;;;;;;;;;;;;;;;;2131720;27;19923;-42
2022/09/18 00:49:45;;;;;;;;;;;;;;;;;;2131587;27;19930;-42
2022/09/18 00:50:45;;;;;;;;;;;;;;;;;;2131798;27;19962;-42
2022/09/18 00:51:46;;;;;;;;;;;;;;;;;;2131708;27;20325;-42
2022/09/18 00:52:47;;;;;;;;;;;;;;;;;;2131631;27;20019;-42
2022/09/18 00:53:48;;;;;;;;;;;;;;;;;;2131776;27;20021;-42
2022/09/18 00:54:48;;;;;;;;;;;;;;;;;;2131579;27;20296;-42
2022/09/18 00:55:49;;;;;;;;;;;;;;;;;;2131734;27;20412;-42
2022/09/18 00:56:50;;;;;;;;;;;;;;;;;;2131516;27;19923;-43
2022/09/18 00:57:51;;;;;;;;;;;;;;;;;;2131622;27;19923;-42
2022/09/18 00:58:52;;;;;;;;;;;;;;;;;;2131522;27;19996;-42
2022/09/18 00:59:53;;;;;;;;;;;;;;;;;;2131539;27;20157;-42
2022/09/18 01:00:54;;;;;;;;;;;;;;;;;;2131611;27;19931;-42
2022/09/18 01:01:55;;;;;;;;;;;;;;;;;;2131633;27;19926;-42
2022/09/18 01:02:56;;;;;;;;;;;;;;;;;;2131688;27;19923;-43
2022/09/18 01:03:56;;;;;;;;;;;;;;;;;;2131660;27;19923;-42
2022/09/18 01:04:57;;;;;;;;;;;;;;;;;;2131665;27;19929;-42
2022/09/18 01:05:58;;;;;;;;;;;;;;;;;;2131543;27;19970;-42
2022/09/18 01:06:59;;;;;;;;;;;;;;;;;;2131517;27;19930;-43
2022/09/18 01:08:00;;;;;;;;;;;;;;;;;;2131492;27;20022;-42
2022/09/18 01:09:01;;;;;;;;;;;;;;;;;;2131569;27;19968;-42
2022/09/18 01:10:02;;;;;;;;;;;;;;;;;;2131460;27;20021;-43
2022/09/18 01:11:03;;;;;;;;;;;;;;;;;;2131370;27;19930;-42
2022/09/18 01:12:04;;;;;;;;;;;;;;;;;;2131501;27;19923;-43
2022/09/18 01:13:04;;;;;;;;;;;;;;;;;;2131676;27;19923;-42
2022/09/18 01:14:05;;;;;;;;;;;;;;;;;;2131479;27;19969;-42
2022/09/18 01:15:06;;;;;;;;;;;;;;;;;;2131541;27;19930;-42
2022/09/18 01:16:07;;;;;;;;;;;;;;;;;;2131824;27;19930;-46
2022/09/18 01:17:08;;;;;;;;;;;;;;;;;;2131410;27;19923;-46
2022/09/18 01:18:09;;;;;;;;;;;;;;;;;;2131652;27;20007;-45
2022/09/18 01:19:09;;;;;;;;;;;;;;;;;;2131461;27;20395;-47
2022/09/18 01:20:11;;;;;;;;;;;;;;;;;;2131475;27;19927;-45
2022/09/18 01:21:12;;;;;;;;;;;;;;;;;;2131731;27;19931;-43
2022/09/18 01:22:12;;;;;;;;;;;;;;;;;;2131552;27;19971;-42
2022/09/18 01:23:13;;;;;;;;;;;;;;;;;;2131599;27;20367;-45
2022/09/18 01:24:15;;;;;;;;;;;;;;;;;;2131664;27;19923;-42
2022/09/18 01:25:15;;;;;;;;;;;;;;;;;;2131487;27;19923;-42
2022/09/18 01:26:16;;;;;;;;;;;;;;;;;;2131126;27;19923;-42
2022/09/18 01:27:17;;;;;;;;;;;;;;;;;;2131571;27;19984;-42
2022/09/18 01:28:18;;;;;;;;;;;;;;;;;;2132340;27;20046;-42
2022/09/18 01:29:19;;;;;;;;;;;;;;;;;;2132898;27;19923;-42
2022/09/18 01:30:20;;;;;;;;;;;;;;;;;;2132859;27;19976;-42
2022/09/18 01:31:20;;;;;;;;;;;;;;;;;;2132782;27;19951;-42
2022/09/18 01:32:21;;;;;;;;;;;;;;;;;;2133042;27;19923;-42
2022/09/18 01:33:22;;;;;;;;;;;;;;;;;;2133023;27;19927;-42
2022/09/18 01:34:23;;;;;;;;;;;;;;;;;;2133008;27;20391;-42
2022/09/18 01:35:24;;;;;;;;;;;;;;;;;;2132923;27;19963;-42
2022/09/18 01:36:41;;;;;;;;;;;;;;;;;;2132832;27;20021;-42
2022/09/18 01:37:42;;;;;;;;;;;;;;;;;;2132967;27;19923;-42
2022/09/18 01:38:43;;;;;;;;;;;;;;;;;;2132867;27;19927;-42
2022/09/18 01:39:43;;;;;;;;;;;;;;;;;;2132803;27;20368;-42
2022/09/18 01:40:44;;;;;;;;;;;;;;;;;;2133197;27;19930;-42
2022/09/18 01:41:49;;;;;;;;;;;;;;;;;;2132698;27;19930;-42
2022/09/18 01:42:50;;;;;;;;;;;;;;;;;;2133084;27;19927;-42
2022/09/18 01:43:51;;;;;;;;;;;;;;;;;;2132776;27;19930;-42
2022/09/18 01:44:52;;;;;;;;;;;;;;;;;;2132942;27;19934;-42
2022/09/18 01:45:53;;;;;;;;;;;;;;;;;;2132895;27;20181;-42
2022/09/18 01:46:54;;;;;;;;;;;;;;;;;;2132694;27;19923;-42
2022/09/18 01:47:55;;;;;;;;;;;;;;;;;;2133090;27;19927;-45
2022/09/18 01:48:56;;;;;;;;;;;;;;;;;;2132827;27;19923;-45
2022/09/18 01:49:58;;;;;;;;;;;;;;;;;;2132858;27;19923;-48
2022/09/18 01:50:59;;;;;;;;;;;;;;;;;;2132719;27;19923;-45
2022/09/18 01:52:00;;;;;;;;;;;;;;;;;;2132834;27;20030;-45
2022/09/18 01:53:01;;;;;;;;;;;;;;;;;;2132663;27;20021;-46
2022/09/18 01:54:02;;;;;;;;;;;;;;;;;;2132887;27;19969;-45
2022/09/18 01:55:05;;;;;;;;;;;;;;;;;;2132736;27;20392;-47
2022/09/18 01:56:05;;;;;;;;;;;;;;;;;;2132737;27;19924;-45
2022/09/18 01:57:06;;;;;;;;;;;;;;;;;;2132646;27;19968;-45
2022/09/18 01:58:07;;;;;;;;;;;;;;;;;;2132834;27;19927;-45
2022/09/18 01:59:08;;;;;;;;;;;;;;;;;;2132815;27;20357;-45
2022/09/18 02:00:09;;;;;;;;;;;;;;;;;;2132687;27;19923;-45
2022/09/18 02:01:11;;;;;;;;;;;;;;;;;;2132876;27;19923;-45
2022/09/18 02:02:12;;;;;;;;;;;;;;;;;;2132554;27;19934;-46
2022/09/18 02:03:13;;;;;;;;;;;;;;;;;;2132664;27;20442;-45
2022/09/18 02:04:14;;;;;;;;;;;;;;;;;;2132682;27;19967;-46
2022/09/18 02:05:15;;;;;;;;;;;;;;;;;;2132955;27;20324;-46
2022/09/18 02:06:16;;;;;;;;;;;;;;;;;;2132642;27;19968;-46
2022/09/18 02:07:18;;;;;;;;;;;;;;;;;;2132852;27;19923;-48
2022/09/18 02:08:19;;;;;;;;;;;;;;;;;;2132618;27;20380;-45
2022/09/18 02:09:19;;;;;;;;;;;;;;;;;;2132834;27;19923;-45
2022/09/18 02:10:20;;;;;;;;;;;;;;;;;;2132829;27;19981;-45
2022/09/18 02:11:21;;;;;;;;;;;;;;;;;;2132330;27;19931;-46
2022/09/18 02:12:22;;;;;;;;;;;;;;;;;;2132606;27;19930;-47
2022/09/18 02:13:22;;;;;;;;;;;;;;;;;;2132682;27;20389;-43
2022/09/18 02:14:23;;;;;;;;;;;;;;;;;;2132647;27;19933;-45
2022/09/18 02:15:24;;;;;;;;;;;;;;;;;;2132583;27;19971;-46
2022/09/18 02:16:25;;;;;;;;;;;;;;;;;;2132756;27;19954;-45
2022/09/18 02:17:26;;;;;;;;;;;;;;;;;;2132748;27;20314;-43
2022/09/18 02:18:27;;;;;;;;;;;;;;;;;;2132584;27;19930;-43
2022/09/18 02:19:27;;;;;;;;;;;;;;;;;;2132603;27;20360;-42
2022/09/18 02:20:29;;;;;;;;;;;;;;;;;;2132657;27;19974;-42
2022/09/18 02:21:29;;;;;;;;;;;;;;;;;;2132783;27;19930;-42
2022/09/18 02:22:30;;;;;;;;;;;;;;;;;;2132546;27;19923;-42
2022/09/18 02:23:32;;;;;;;;;;;;;;;;;;2132799;27;20332;-42
2022/09/18 02:24:33;;;;;;;;;;;;;;;;;;2132555;27;20279;-42
2022/09/18 02:25:34;;;;;;;;;;;;;;;;;;2132731;27;19924;-42
2022/09/18 02:26:35;;;;;;;;;;;;;;;;;;2132338;27;19974;-42
2022/09/18 02:27:36;;;;;;;;;;;;;;;;;;2132314;27;19966;-42
2022/09/18 02:28:37;;;;;;;;;;;;;;;;;;2132641;27;19923;-42
2022/09/18 02:29:37;;;;;;;;;;;;;;;;;;2132663;27;19923;-42
2022/09/18 02:30:38;;;;;;;;;;;;;;;;;;2132792;27;19970;-45
2022/09/18 02:31:39;;;;;;;;;;;;;;;;;;2132550;27;19923;-45
2022/09/18 02:32:40;;;;;;;;;;;;;;;;;;2132598;27;20268;-46
2022/09/18 02:33:41;;;;;;;;;;;;;;;;;;2132719;27;19934;-46
2022/09/18 02:34:42;;;;;;;;;;;;;;;;;;2132459;27;19999;-46
2022/09/18 02:35:42;;;;;;;;;;;;;;;;;;2132492;27;20107;-45
2022/09/18 02:36:43;;;;;;;;;;;;;;;;;;2132537;27;20355;-45
2022/09/18 02:37:44;;;;;;;;;;;;;;;;;;2132524;27;19923;-45
2022/09/18 02:38:45;;;;;;;;;;;;;;;;;;2132639;27;19923;-46
2022/09/18 02:39:46;;;;;;;;;;;;;;;;;;2131370;27;19945;-45
2022/09/18 02:40:47;;;;;;;;;;;;;;;;;;2132476;27;20006;-46
2022/09/18 02:41:47;;;;;;;;;;;;;;;;;;2132465;27;19927;-46
2022/09/18 02:42:48;;;;;;;;;;;;;;;;;;2132584;27;20058;-42
2022/09/18 02:43:49;;;;;;;;;;;;;;;;;;2132562;27;20016;-42
2022/09/18 02:44:50;;;;;;;;;;;;;;;;;;2132369;27;19927;-42
2022/09/18 02:45:51;;;;;;;;;;;;;;;;;;2132482;27;19923;-42
2022/09/18 02:46:52;;;;;;;;;;;;;;;;;;2132299;27;19927;-43
2022/09/18 02:47:52;;;;;;;;;;;;;;;;;;2132322;27;19992;-43
2022/09/18 02:48:53;;;;;;;;;;;;;;;;;;2132302;27;19927;-43
2022/09/18 02:49:54;;;;;;;;;;;;;;;;;;2132534;27;19927;-43
2022/09/18 02:50:55;;;;;;;;;;;;;;;;;;2132483;27;19922;-42
2022/09/18 02:51:56;;;;;;;;;;;;;;;;;;2132397;27;19923;-43
2022/09/18 02:52:57;;;;;;;;;;;;;;;;;;2132898;27;19950;-43
2022/09/18 02:53:58;;;;;;;;;;;;;;;;;;2132591;27;20009;-43
2022/09/18 02:54:59;;;;;;;;;;;;;;;;;;2132389;27;19927;-43
2022/09/18 02:56:01;;;;;;;;;;;;;;;;;;2132326;27;19923;-43
2022/09/18 02:57:02;;;;;;;;;;;;;;;;;;2132388;27;19923;-43
2022/09/18 02:58:03;;;;;;;;;;;;;;;;;;2132327;27;20314;-43
2022/09/18 02:59:03;;;;;;;;;;;;;;;;;;2132175;27;19923;-44
2022/09/18 03:00:04;;;;;;;;;;;;;;;;;;2132534;27;20055;-46
2022/09/18 03:01:05;;;;;;;;;;;;;;;;;;2132289;27;19923;-45
2022/09/18 03:02:06;;;;;;;;;;;;;;;;;;2132473;27;19923;-45
2022/09/18 03:03:07;;;;;;;;;;;;;;;;;;2132261;27;19953;-47
2022/09/18 03:04:08;;;;;;;;;;;;;;;;;;2132437;27;19930;-46
2022/09/18 03:05:09;;;;;;;;;;;;;;;;;;2132434;27;19923;-43
2022/09/18 03:06:10;;;;;;;;;;;;;;;;;;2132284;27;19962;-43
2022/09/18 03:07:13;;;;;;;;;;;;;;;;;;2132259;27;20211;-44
2022/09/18 03:08:14;;;;;;;;;;;;;;;;;;2132167;27;20395;-44
2022/09/18 03:09:15;;;;;;;;;;;;;;;;;;2132296;27;19923;-43
2022/09/18 03:10:16;;;;;;;;;;;;;;;;;;2132571;27;19923;-45
2022/09/18 03:11:17;;;;;;;;;;;;;;;;;;2131895;27;20404;-46
2022/09/18 03:12:17;;;;;;;;;;;;;;;;;;2132600;27;19969;-43
2022/09/18 03:13:18;;;;;;;;;;;;;;;;;;2132761;27;20014;-45
2022/09/18 03:14:19;;;;;;;;;;;;;;;;;;2132397;27;20484;-43
2022/09/18 03:15:21;;;;;;;;;;;;;;;;;;2132334;27;19935;-44
2022/09/18 03:16:21;;;;;;;;;;;;;;;;;;2132130;27;19976;-44
2022/09/18 03:17:22;;;;;;;;;;;;;;;;;;2132307;27;20390;-44
2022/09/18 03:18:23;;;;;;;;;;;;;;;;;;2132206;27;19923;-44
2022/09/18 03:19:24;;;;;;;;;;;;;;;;;;2132162;27;20291;-43
2022/09/18 03:20:25;;;;;;;;;;;;;;;;;;2132178;27;20006;-44
2022/09/18 03:21:26;;;;;;;;;;;;;;;;;;2132107;27;20329;-44
2022/09/18 03:22:26;;;;;;;;;;;;;;;;;;2132005;27;19923;-44
2022/09/18 03:23:27;;;;;;;;;;;;;;;;;;2132148;27;19935;-44
2022/09/18 03:24:28;;;;;;;;;;;;;;;;;;2131956;27;19923;-44
2022/09/18 03:25:29;;;;;;;;;;;;;;;;;;2132365;27;19930;-45
2022/09/18 03:26:30;;;;;;;;;;;;;;;;;;2132110;27;19923;-46
2022/09/18 03:27:31;;;;;;;;;;;;;;;;;;2132147;27;19971;-48
2022/09/18 03:28:32;;;;;;;;;;;;;;;;;;2132138;27;19923;-48
2022/09/18 03:29:33;;;;;;;;;;;;;;;;;;2132099;27;19930;-46
2022/09/18 03:30:33;;;;;;;;;;;;;;;;;;2132242;27;19945;-47
2022/09/18 03:31:34;;;;;;;;;;;;;;;;;;2132177;27;19923;-46
2022/09/18 03:32:35;;;;;;;;;;;;;;;;;;2132225;27;19968;-47
2022/09/18 03:33:36;;;;;;;;;;;;;;;;;;2132226;27;20364;-47
2022/09/18 03:34:37;;;;;;;;;;;;;;;;;;2132216;27;19981;-47
2022/09/18 03:35:38;;;;;;;;;;;;;;;;;;2132024;27;19926;-46
2022/09/18 03:36:39;;;;;;;;;;;;;;;;;;2132026;27;19971;-47
2022/09/18 03:37:39;;;;;;;;;;;;;;;;;;2132099;27;19923;-47
2022/09/18 03:38:41;;;;;;;;;;;;;;;;;;2132132;27;19962;-46
2022/09/18 03:39:42;;;;;;;;;;;;;;;;;;2132143;27;19930;-45
2022/09/18 03:40:43;;;;;;;;;;;;;;;;;;2132189;27;20291;-46
2022/09/18 03:41:47;;;;;;;;;;;;;;;;;;2132078;27;19923;-45
2022/09/18 03:42:49;;;;;;;;;;;;;;;;;;2132041;27;19930;-46
2022/09/18 03:43:50;;;;;;;;;;;;;;;;;;2132123;27;20427;-46
2022/09/18 03:44:51;;;;;;;;;;;;;;;;;;2132303;27;19924;-44
2022/09/18 03:45:52;;;;;;;;;;;;;;;;;;2131972;27;19923;-44
2022/09/18 03:46:53;;;;;;;;;;;;;;;;;;2132082;27;20436;-43
2022/09/18 03:47:54;;;;;;;;;;;;;;;;;;2131931;27;20287;-43
2022/09/18 03:48:55;;;;;;;;;;;;;;;;;;2132110;27;19923;-43
2022/09/18 03:49:55;;;;;;;;;;;;;;;;;;2132183;27;19976;-46
2022/09/18 03:50:56;;;;;;;;;;;;;;;;;;2131776;27;19929;-46
2022/09/18 03:51:57;;;;;;;;;;;;;;;;;;2131891;27;20022;-46
2022/09/18 03:52:58;;;;;;;;;;;;;;;;;;2132071;27;19923;-45
2022/09/18 03:53:59;;;;;;;;;;;;;;;;;;2132319;27;20006;-43
2022/09/18 03:55:00;;;;;;;;;;;;;;;;;;2131932;27;20325;-43
2022/09/18 03:56:00;;;;;;;;;;;;;;;;;;2131973;27;20376;-43
2022/09/18 03:57:01;;;;;;;;;;;;;;;;;;2131822;27;19929;-42
2022/09/18 03:58:02;;;;;;;;;;;;;;;;;;2132055;27;19927;-43
2022/09/18 03:59:03;;;;;;;;;;;;;;;;;;2132016;27;19980;-42
2022/09/18 04:00:04;;;;;;;;;;;;;;;;;;2131878;27;19952;-42
2022/09/18 04:01:05;;;;;;;;;;;;;;;;;;2131900;27;20379;-43
2022/09/18 04:02:06;;;;;;;;;;;;;;;;;;2131799;27;19992;-43
2022/09/18 04:03:07;;;;;;;;;;;;;;;;;;2131822;27;20388;-44
2022/09/18 04:04:08;;;;;;;;;;;;;;;;;;2131927;27;19930;-44
2022/09/18 04:05:09;;;;;;;;;;;;;;;;;;2132259;27;19966;-46
2022/09/18 04:06:09;;;;;;;;;;;;;;;;;;2131914;27;20321;-46
2022/09/18 04:07:10;;;;;;;;;;;;;;;;;;2131780;27;19962;-46
2022/09/18 04:08:11;;;;;;;;;;;;;;;;;;2131825;27;20398;-46
2022/09/18 04:09:12;;;;;;;;;;;;;;;;;;2132025;27;19927;-46
2022/09/18 04:10:13;;;;;;;;;;;;;;;;;;2131968;27;19927;-43
2022/09/18 04:11:14;;;;;;;;;;;;;;;;;;2131837;27;19991;-44
2022/09/18 04:12:15;;;;;;;;;;;;;;;;;;2131820;27;20292;-43
2022/09/18 04:13:15;;;;;;;;;;;;;;;;;;2131978;27;19930;-44
2022/09/18 04:14:16;;;;;;;;;;;;;;;;;;2132310;27;20399;-46
2022/09/18 04:15:18;;;;;;;;;;;;;;;;;;2131929;27;19970;-48
2022/09/18 04:16:18;;;;;;;;;;;;;;;;;;2131758;27;19968;-46
2022/09/18 04:17:19;;;;;;;;;;;;;;;;;;2131763;27;19956;-47
2022/09/18 04:18:20;;;;;;;;;;;;;;;;;;2132119;27;19976;-50
2022/09/18 04:19:21;;;;;;;;;;;;;;;;;;2131614;27;20025;-47
2022/09/18 04:20:22;;;;;;;;;;;;;;;;;;2131596;27;19953;-46
2022/09/18 04:21:23;;;;;;;;;;;;;;;;;;2131806;27;19923;-47
2022/09/18 04:22:23;;;;;;;;;;;;;;;;;;2131958;27;19930;-47
2022/09/18 04:23:25;;;;;;;;;;;;;;;;;;2131746;27;20021;-46
2022/09/18 04:24:26;;;;;;;;;;;;;;;;;;2131883;27;20006;-46
2022/09/18 04:25:27;;;;;;;;;;;;;;;;;;2132331;27;20277;-44
2022/09/18 04:26:28;;;;;;;;;;;;;;;;;;2131866;27;19923;-44
2022/09/18 04:27:29;;;;;;;;;;;;;;;;;;2131987;27;19930;-44
2022/09/18 04:28:29;;;;;;;;;;;;;;;;;;2131696;27;19923;-44
2022/09/18 04:29:30;;;;;;;;;;;;;;;;;;2131870;27;19958;-43
2022/09/18 04:30:31;;;;;;;;;;;;;;;;;;2131817;27;19923;-43
2022/09/18 04:31:32;;;;;;;;;;;;;;;;;;2131927;27;19923;-44
2022/09/18 04:32:33;;;;;;;;;;;;;;;;;;2131926;27;19973;-47
2022/09/18 04:33:34;;;;;;;;;;;;;;;;;;2131751;27;19962;-46
2022/09/18 04:34:35;;;;;;;;;;;;;;;;;;2132071;27;19923;-44
2022/09/18 04:35:35;;;;;;;;;;;;;;;;;;2132240;27;19923;-44
2022/09/18 04:36:36;;;;;;;;;;;;;;;;;;2131961;27;19934;-44
2022/09/18 04:37:37;;;;;;;;;;;;;;;;;;2132290;27;20410;-44
2022/09/18 04:38:38;;;;;;;;;;;;;;;;;;2131641;27;20367;-46
2022/09/18 04:39:39;;;;;;;;;;;;;;;;;;2131624;27;19970;-44
2022/09/18 04:40:40;;;;;;;;;;;;;;;;;;2131710;27;19964;-43
2022/09/18 04:41:41;;;;;;;;;;;;;;;;;;2131603;27;19934;-44
2022/09/18 04:42:41;;;;;;;;;;;;;;;;;;2131717;27;19934;-44
2022/09/18 04:43:42;;;;;;;;;;;;;;;;;;2131663;27;19927;-44
2022/09/18 04:44:43;;;;;;;;;;;;;;;;;;2131677;27;19927;-43
2022/09/18 04:45:44;;;;;;;;;;;;;;;;;;2131743;27;20000;-45
2022/09/18 04:46:45;;;;;;;;;;;;;;;;;;2131577;27;20330;-45
2022/09/18 04:47:46;;;;;;;;;;;;;;;;;;2131791;27;19962;-44
2022/09/18 04:48:47;;;;;;;;;;;;;;;;;;2131614;27;19985;-44
2022/09/18 04:49:48;;;;;;;;;;;;;;;;;;2131884;27;19976;-46
2022/09/18 04:50:48;;;;;;;;;;;;;;;;;;2131587;27;19930;-45
2022/09/18 04:51:49;;;;;;;;;;;;;;;;;;2131907;27;19937;-46
2022/09/18 04:52:50;;;;;;;;;;;;;;;;;;2131725;27;19932;-47
2022/09/18 04:53:51;;;;;;;;;;;;;;;;;;2131851;27;20275;-43
2022/09/18 04:54:52;;;;;;;;;;;;;;;;;;2131750;27;19934;-43
2022/09/18 04:55:53;;;;;;;;;;;;;;;;;;2131721;27;20287;-43
2022/09/18 04:56:53;;;;;;;;;;;;;;;;;;2131708;27;19931;-43
2022/09/18 04:57:54;;;;;;;;;;;;;;;;;;2131560;27;20390;-43
2022/09/18 04:58:55;;;;;;;;;;;;;;;;;;2131987;27;20388;-45
2022/09/18 04:59:56;;;;;;;;;;;;;;;;;;2131498;27;19930;-45
2022/09/18 05:00:57;;;;;;;;;;;;;;;;;;2131711;27;19923;-46
2022/09/18 05:01:58;;;;;;;;;;;;;;;;;;2131781;27;19967;-46
2022/09/18 05:02:58;;;;;;;;;;;;;;;;;;2131907;27;19929;-45
2022/09/18 05:03:59;;;;;;;;;;;;;;;;;;2133088;27;19923;-47
2022/09/18 05:05:00;;;;;;;;;;;;;;;;;;2133082;27;19923;-46
2022/09/18 05:06:01;;;;;;;;;;;;;;;;;;2133175;27;20018;-47
2022/09/18 05:07:03;;;;;;;;;;;;;;;;;;2133043;27;19923;-45
2022/09/18 05:08:05;;;;;;;;;;;;;;;;;;2133383;27;19923;-45
2022/09/18 05:09:05;;;;;;;;;;;;;;;;;;2132981;27;20372;-48
2022/09/18 05:10:09;;;;;;;;;;;;;;;;;;2133175;27;19958;-47
2022/09/18 05:11:09;;;;;;;;;;;;;;;;;;2133103;27;19923;-43
2022/09/18 05:12:10;;;;;;;;;;;;;;;;;;2133363;27;19930;-46
2022/09/18 05:13:11;;;;;;;;;;;;;;;;;;2133046;27;19948;-48
2022/09/18 05:14:12;;;;;;;;;;;;;;;;;;2133083;27;20029;-47
2022/09/18 05:15:13;;;;;;;;;;;;;;;;;;2132961;27;19927;-47
2022/09/18 05:16:14;;;;;;;;;;;;;;;;;;2133010;27;19983;-47
2022/09/18 05:17:15;;;;;;;;;;;;;;;;;;2132726;27;20291;-47
2022/09/18 05:18:16;;;;;;;;;;;;;;;;;;2133102;27;19923;-47
2022/09/18 05:19:16;;;;;;;;;;;;;;;;;;2133127;27;19979;-47
2022/09/18 05:20:18;;;;;;;;;;;;;;;;;;2132989;27;20006;-47
2022/09/18 05:21:19;;;;;;;;;;;;;;;;;;2133023;27;19924;-46
2022/09/18 05:22:20;;;;;;;;;;;;;;;;;;2133008;27;19978;-46
2022/09/18 05:23:20;;;;;;;;;;;;;;;;;;2133150;27;20276;-44
2022/09/18 05:24:21;;;;;;;;;;;;;;;;;;2133052;27;19923;-45
2022/09/18 05:25:23;;;;;;;;;;;;;;;;;;2133413;27;20352;-47
2022/09/18 05:26:25;;;;;;;;;;;;;;;;;;2132812;27;19930;-47
2022/09/18 05:27:26;;;;;;;;;;;;;;;;;;2133722;27;20413;-44
2022/09/18 05:28:27;;;;;;;;;;;;;;;;;;2132934;27;19946;-44
2022/09/18 05:29:28;;;;;;;;;;;;;;;;;;2133078;27;19923;-44
2022/09/18 05:30:29;;;;;;;;;;;;;;;;;;2133084;27;19924;-44
2022/09/18 05:31:30;;;;;;;;;;;;;;;;;;2132816;27;19923;-43
2022/09/18 05:32:31;;;;;;;;;;;;;;;;;;2133064;27;20284;-43
2022/09/18 05:33:32;;;;;;;;;;;;;;;;;;2132937;27;20424;-44
2022/09/18 05:34:32;;;;;;;;;;;;;;;;;;2133121;27;19946;-47
2022/09/18 05:35:33;;;;;;;;;;;;;;;;;;2132824;27;20021;-46
2022/09/18 05:36:34;;;;;;;;;;;;;;;;;;2132973;27;19923;-46
2022/09/18 05:37:35;;;;;;;;;;;;;;;;;;2132853;27;19923;-46
2022/09/18 05:38:36;;;;;;;;;;;;;;;;;;2132949;27;19923;-48
2022/09/18 05:39:37;;;;;;;;;;;;;;;;;;2132807;27;19924;-50
2022/09/18 05:40:38;;;;;;;;;;;;;;;;;;2132814;27;19966;-46
2022/09/18 05:41:39;;;;;;;;;;;;;;;;;;2132877;27;19923;-48
2022/09/18 05:42:40;;;;;;;;;;;;;;;;;;2133024;27;20341;-51
2022/09/18 05:43:40;;;;;;;;;;;;;;;;;;2133158;27;19976;-47
2022/09/18 05:44:41;;;;;;;;;;;;;;;;;;2132962;27;20042;-44
2022/09/18 05:45:42;;;;;;;;;;;;;;;;;;2132960;27;19931;-44
2022/09/18 05:46:43;;;;;;;;;;;;;;;;;;2132756;27;20187;-44
2022/09/18 05:47:44;;;;;;;;;;;;;;;;;;2132965;27;19927;-47
2022/09/18 05:48:45;;;;;;;;;;;;;;;;;;2133216;27;19923;-44
2022/09/18 05:49:46;;;;;;;;;;;;;;;;;;2132909;27;19931;-44
2022/09/18 05:50:49;;;;;;;;;;;;;;;;;;2132831;27;20014;-44
2022/09/18 05:51:53;;;;;;;;;;;;;;;;;;2132979;27;19923;-45
2022/09/18 05:52:54;;;;;;;;;;;;;;;;;;2132951;27;20383;-44
2022/09/18 05:53:55;;;;;;;;;;;;;;;;;;2132696;27;19968;-46
2022/09/18 05:54:56;;;;;;;;;;;;;;;;;;2132875;27;19934;-48
2022/09/18 05:55:57;;;;;;;;;;;;;;;;;;2132790;27;19962;-45
2022/09/18 05:56:57;;;;;;;;;;;;;;;;;;2132831;27;19923;-45
2022/09/18 05:57:58;;;;;;;;;;;;;;;;;;2132694;27;20379;-44
2022/09/18 05:58:59;;;;;;;;;;;;;;;;;;2132717;27;19971;-45
2022/09/18 06:00:00;;;;;;;;;;;;;;;;;;2132627;27;20398;-45
2022/09/18 06:01:03;;;;;;;;;;;;;;;;;;2132856;27;19992;-45
2022/09/18 06:02:04;;;;;;;;;;;;;;;;;;2132705;27;19927;-44
2022/09/18 06:03:05;;;;;;;;;;;;;;;;;;2132648;27;19924;-45
2022/09/18 06:04:06;;;;;;;;;;;;;;;;;;2132703;27;19945;-44
2022/09/18 06:05:07;;;;;;;;;;;;;;;;;;2132619;27;20004;-44
2022/09/18 06:06:08;;;;;;;;;;;;;;;;;;2133028;27;19990;-43
2022/09/18 06:07:08;;;;;;;;;;;;;;;;;;2132593;27;19930;-45
2022/09/18 06:08:10;;;;;;;;;;;;;;;;;;2132711;27;19971;-44
2022/09/18 06:09:10;;;;;;;;;;;;;;;;;;2132729;27;19929;-44
2022/09/18 06:10:11;;;;;;;;;;;;;;;;;;2132833;27;19975;-44
2022/09/18 06:11:12;;;;;;;;;;;;;;;;;;2132345;27;20341;-43
2022/09/18 06:12:13;;;;;;;;;;;;;;;;;;2132994;27;19927;-46
2022/09/18 06:13:14;;;;;;;;;;;;;;;;;;2132704;27;19923;-44
2022/09/18 06:14:15;;;;;;;;;;;;;;;;;;2132535;27;20000;-43
2022/09/18 06:15:16;;;;;;;;;;;;;;;;;;2132594;27;19923;-43
2022/09/18 06:16:17;;;;;;;;;;;;;;;;;;2133037;27;19923;-46
2022/09/18 06:17:18;;;;;;;;;;;;;;;;;;2132581;27;20019;-46
2022/09/18 06:18:19;;;;;;;;;;;;;;;;;;2132838;27;19923;-49
2022/09/18 06:19:20;;;;;;;;;;;;;;;;;;2132724;27;19929;-45
2022/09/18 06:20:20;;;;;;;;;;;;;;;;;;2132530;27;19923;-44
2022/09/18 06:21:21;;;;;;;;;;;;;;;;;;2132452;27;19923;-46
2022/09/18 06:22:22;;;;;;;;;;;;;;;;;;2132564;27;19930;-43
2022/09/18 06:23:24;;;;;;;;;;;;;;;;;;2132967;27;19927;-42
2022/09/18 06:24:25;;;;;;;;;;;;;;;;;;2132666;27;19930;-43
2022/09/18 06:25:26;;;;;;;;;;;;;;;;;;2132778;27;20383;-42
2022/09/18 06:26:26;;;;;;;;;;;;;;;;;;2132788;27;19984;-46
2022/09/18 06:27:27;;;;;;;;;;;;;;;;;;2132705;27;19978;-47
2022/09/18 06:28:29;;;;;;;;;;;;;;;;;;2132815;27;19975;-47
2022/09/18 06:29:30;;;;;;;;;;;;;;;;;;2132517;27;19931;-46
2022/09/18 06:30:31;;;;;;;;;;;;;;;;;;2132711;27;20014;-44
2022/09/18 06:31:32;;;;;;;;;;;;;;;;;;2132464;27;19923;-44
2022/09/18 06:32:33;;;;;;;;;;;;;;;;;;2132510;27;19923;-43
2022/09/18 06:33:35;;;;;;;;;;;;;;;;;;2132504;27;19935;-44
2022/09/18 06:34:35;;;;;;;;;;;;;;;;;;2132448;27;19967;-43
2022/09/18 06:35:40;;;;;;;;;;;;;;;;;;2132575;27;19924;-46
2022/09/18 06:36:41;;;;;;;;;;;;;;;;;;2132395;27;19927;-43
2022/09/18 06:37:42;;;;;;;;;;;;;;;;;;2132601;27;19965;-43
2022/09/18 06:38:42;;;;;;;;;;;;;;;;;;2132430;27;19953;-43
2022/09/18 06:39:44;;;;;;;;;;;;;;;;;;2132489;27;20017;-42
2022/09/18 06:40:45;;;;;;;;;;;;;;;;;;2132409;27;20364;-47
2022/09/18 06:41:46;;;;;;;;;;;;;;;;;;2132361;27;20441;-45
2022/09/18 06:42:47;;;;;;;;;;;;;;;;;;2132529;27;20004;-45
2022/09/18 06:43:49;;;;;;;;;;;;;;;;;;2132578;27;20260;-45
2022/09/18 06:44:50;;;;;;;;;;;;;;;;;;2132710;27;19934;-42
2022/09/18 06:45:51;;;;;;;;;;;;;;;;;;2132595;27;19923;-42
2022/09/18 06:46:52;;;;;;;;;;;;;;;;;;2132361;27;19923;-42
2022/09/18 06:47:53;;;;;;;;;;;;;;;;;;2132654;27;19923;-42
2022/09/18 06:48:54;;;;;;;;;;;;;;;;;;2132487;27;19923;-42
2022/09/18 06:49:55;;;;;;;;;;;;;;;;;;2132512;27;19976;-45
2022/09/18 06:50:56;;;;;;;;;;;;;;;;;;2132472;27;19923;-46
2022/09/18 06:51:57;;;;;;;;;;;;;;;;;;2132369;27;19958;-47
2022/09/18 06:52:58;;;;;;;;;;;;;;;;;;2132975;27;19923;-43
2022/09/18 06:53:58;;;;;;;;;;;;;;;;;;2132561;27;20280;-42
2022/09/18 06:54:59;;;;;;;;;;;;;;;;;;2132315;27;19969;-42
2022/09/18 06:56:02;;;;;;;;;;;;;;;;;;2132488;27;19923;-43